OMAAOTBD

Guest
Details From OMAA - ABU DHABI INTL
To OTBD - DOHA INTL
Flight Number -
Tags generated
Created
Modified
Stats Distance 175 nm / 325 km
Max Altitude 19,000 ft / 5,791 m
Waypoints 4
Social Downloads 1
Likes 0
Share VATSIM

Download

Looking for another format? Having issues loading an existing format? Contact us
Advertisement - Login to hide

Notes

Basic altitude profile: - Ascent Rate: 2500ft/min - Ascent Speed: 250kts - Cruise Altitude: 11000ft - Cruise Speed: 420kts - Descent Rate: 1500ft/min - Descent Speed: 250kts Options: - Use NATs: yes - Use PACOTS: yes - Use low airways: yes - Use high airways: yes

Route

OMAA GADVO B415 BUNDU OTBD

ID Type Via Altitude Latitude Longitude Leg Dist Tot Dist Heading (true) Name
O OMAA APT - 0 ft / 0 m 24.43305˚ 54.65118˚ - 0 nm - ABU DHABI INTL
GADVO FIX - 19,000 ft / 5,791 m 24.69056˚ 53.71667˚ 53 nm 53 nm 287° / 287° -
BUNDU FIX B415 (AWY-LO) 11,200 ft / 3,414 m 25.00667˚ 52.49000˚ 69 nm 122 nm 286° / 286° -
O OTBD APT - 0 ft / 0 m 25.26106˚ 51.56500˚ 52 nm 175 nm 287° / 287° DOHA INTL

Altitude Profile

Advertisement - Login to hide

Weather


0- 5 10 15 20 25 30 35+ Temperature / ° C

Clouds and Precipitation
Forecast for 2018-06-18 06:00 UTC. Updated 4 hours ago

Ground ~20,000 ft ~40,000 ft Winds

OMAA

Details ICAO OMAA (AUH)
Name ABU DHABI INTL
Region United Arab Emirates
Timezone Asia/Dubai (UTC+4.0)
Stats Elevation 88 ft / 27 m (AMSL)
Location 24.433049° 54.651182°
Runways 1
Magnetic Variation 2.003° E

METAR

OMAA 180700Z 21003KT 150V300 CAVOK 38/09 Q0999 BECMG 30010KT

Decode

TAF

TAF OMAA 180500Z 1806/1912 23006KT CAVOK BECMG 1806/1808 30010KT BECMG 1818/1820 05005KT BECMG 1908/1910 33010KT

Decode

Departure Runways

ID Width Length Bearing (true) Bearing (mag) Surface Threshold Offset Overrun Length
13 148 ft / 45 m 13,461 ft / 4,103 m 127.94° 125.94° Asphalt 0 ft / 0 m 180 ft / 55 m
31 148 ft / 45 m 13,461 ft / 4,103 m 307.95° 305.95° Asphalt 0 ft / 0 m 196 ft / 60 m

OTBD

Details ICAO OTBD (DOH)
Name DOHA INTL
Region Qatar
Timezone Asia/Qatar (UTC+3.0)
Stats Elevation 35 ft / 11 m (AMSL)
Location 25.261056° 51.564999°
Runways 1
Magnetic Variation 2.505° E

METAR

OTBD 180730Z AUTO 35018KT CAVOK 39/20 Q0998 NOSIG

Decode

TAF

TAF OTBD 180501Z 1806/1912 34012KT CAVOK TEMPO 1808/1814 34015G25KT 7000 NSC BECMG 1818/1820 29006KT

Decode

Destination Runways

ID Width Length Bearing (true) Bearing (mag) Surface Threshold Offset Overrun Length
16 151 ft / 46 m 15,065 ft / 4,592 m 158.20° 155.70° Asphalt 2,460 ft / 750 m 98 ft / 30 m
34 151 ft / 46 m 15,065 ft / 4,592 m 338.21° 335.71° Asphalt 0 ft / 0 m 460 ft / 140 m

Approach Navaids

Runway Type Ident Frequency Range Bearing (true) Bearing (mag) Slope Elevation
34 Localiser IBD 109.50 MHz 18 nm / 33 km 338.32° 335.82° - 38 ft / 12 m (AMSL)
34 Glidescope IBD 109.50 MHz 10 nm / 19 km 338.21° 335.70° 3.00° 35 ft / 11 m (AMSL)
34 DME IBD 109.50 MHz 18 nm / 33 km - - - 35 ft / 11 m (AMSL)

Popular Alternatives